KRIV/RIV METAR and TAF weather

Enter ICAO airport designator
Station Type Date Time Source
KRIV METAR 2024/06/16 08:55 UTC NOAA

KRIV 160855Z AUTO 00000KT 10SM CLR 15/11 A2978 RMK AO2 SLP070 T01510105 57010


Station Type Date Time Source
KRIV Decoded METAR 2024/06/16 08:55 UTC NOAA

Riverside / March Air Force Base, CA, United States (KRIV) 33-54N 117-15W 468M
Jun 16, 2024 - 04:55 AM EDT / 2024.06.16 0855 UTC
Wind: Calm:0
Visibility: 10 mile(s):0
Sky conditions: clear
Temperature: 59.2 F (15.1 C)
Dew Point: 50.9 F (10.5 C)
Relative Humidity: 73%
Pressure (altimeter): 29.78 in. Hg (1008 hPa)
Pressure tendency: 0.03 inches (1.0 hPa) lower than three hours ago
ob: KRIV 160855Z AUTO 00000KT 10SM CLR 15/11 A2978 RMK AO2 SLP070 T01510105 57010
cycle: 9

Station Type Date Time Source
KRIV TAF 2024/06/16 04:12 UTC NOAA